createdAt,value
2018-12-20T00:00:25.757Z,85.24
2018-12-20T00:01:25.273Z,84.95
2018-12-20T00:02:25.561Z,85.05
2018-12-20T00:03:25.450Z,85.24
2018-12-20T00:04:25.702Z,85.34
2018-12-20T00:05:25.671Z,85.53
2018-12-20T00:06:25.704Z,85.24
2018-12-20T00:07:25.957Z,85.15
2018-12-20T00:08:25.777Z,85.34
2018-12-20T00:09:25.571Z,85.05
2018-12-20T00:10:25.528Z,85.34
2018-12-20T00:11:25.475Z,85.15
2018-12-20T00:12:25.960Z,85.05
2018-12-20T00:13:25.787Z,85.15
2018-12-20T00:14:32.243Z,85.24
2018-12-20T00:15:25.811Z,85.43
2018-12-20T00:16:25.899Z,84.86
2018-12-20T00:17:25.916Z,85.24
2018-12-20T00:18:25.588Z,84.95
2018-12-20T00:19:25.589Z,85.91
2018-12-20T00:20:25.780Z,84.77
2018-12-20T00:21:25.741Z,85.15
2018-12-20T00:22:25.792Z,85.15
2018-12-20T00:23:26.004Z,84.86
2018-12-20T00:24:25.936Z,85.34
2018-12-20T00:25:25.966Z,85.34
2018-12-20T00:26:25.769Z,84.95
2018-12-20T00:27:25.836Z,84.86
2018-12-20T00:28:25.828Z,85.81
2018-12-20T00:29:25.963Z,85.34
2018-12-20T00:30:25.772Z,85.43
2018-12-20T00:31:25.838Z,85.34
2018-12-20T00:32:26.105Z,85.81
2018-12-20T00:33:26.170Z,85.53
2018-12-20T00:34:26.215Z,85.15
2018-12-20T00:35:26.078Z,85.34
2018-12-20T00:36:26.078Z,85.72
2018-12-20T00:37:25.992Z,84.95
2018-12-20T00:38:26.343Z,85.62
2018-12-20T00:39:25.954Z,85.53
2018-12-20T00:40:26.045Z,84.77
2018-12-20T00:41:26.291Z,84.95
2018-12-20T00:42:26.269Z,84.86
2018-12-20T00:43:26.005Z,84.86
2018-12-20T00:44:26.018Z,84.67
2018-12-20T00:45:26.381Z,84.67
2018-12-20T00:46:26.078Z,85.24
2018-12-20T00:47:26.378Z,85.24
2018-12-20T00:48:26.271Z,85.53
2018-12-20T00:49:26.492Z,85.53
2018-12-20T00:50:26.397Z,85.53
2018-12-20T00:51:26.366Z,85.24
2018-12-20T00:52:26.818Z,85.43
2018-12-20T00:53:26.543Z,85.72
2018-12-20T00:54:26.463Z,85.43
2018-12-20T00:55:26.301Z,85.43
2018-12-20T00:56:26.462Z,85.53
2018-12-20T00:57:26.497Z,85.34
2018-12-20T00:58:26.317Z,85.34
2018-12-20T00:59:26.535Z,85.34
2018-12-20T01:00:26.338Z,85.43
2018-12-20T01:01:26.313Z,85.43
2018-12-20T01:02:26.350Z,85.62
2018-12-20T01:03:26.528Z,85.81
2018-12-20T01:04:26.555Z,85.53
2018-12-20T01:05:26.477Z,85.43
2018-12-20T01:06:26.546Z,85.43
2018-12-20T01:07:26.436Z,85.53
2018-12-20T01:08:26.649Z,85.81
2018-12-20T01:09:26.815Z,85.53
2018-12-20T01:10:26.819Z,85.62
2018-12-20T01:11:26.886Z,85.62
2018-12-20T01:12:26.767Z,85.62
2018-12-20T01:13:26.606Z,85.53
2018-12-20T01:14:26.656Z,85.72
2018-12-20T01:15:26.761Z,85.72
2018-12-20T01:16:26.918Z,85.53
2018-12-20T01:17:26.685Z,85.62
2018-12-20T01:18:26.692Z,85.62
2018-12-20T01:19:26.954Z,85.62
2018-12-20T01:20:27.004Z,85.81
2018-12-20T01:21:26.754Z,85.53
2018-12-20T01:22:26.948Z,85.81
2018-12-20T01:23:27.050Z,85.53
2018-12-20T01:24:26.830Z,85.81
2018-12-20T01:25:27.005Z,85.43
2018-12-20T01:26:27.058Z,85.62
2018-12-20T01:27:26.809Z,85.72
2018-12-20T01:28:27.149Z,85.81
2018-12-20T01:29:27.123Z,85.91
2018-12-20T01:30:26.895Z,85.53
2018-12-20T01:31:27.081Z,85.62
2018-12-20T01:32:27.322Z,86
2018-12-20T01:33:27.162Z,86
2018-12-20T01:34:27.463Z,85.62
2018-12-20T01:35:26.909Z,85.91
2018-12-20T01:36:27.222Z,85.53
2018-12-20T01:37:27.119Z,85.91
2018-12-20T01:38:27.010Z,85.53
2018-12-20T01:39:27.390Z,86.19
2018-12-20T01:40:27.272Z,86.1
2018-12-20T01:41:27.303Z,86.1
2018-12-20T01:42:27.044Z,86.1
2018-12-20T01:43:27.615Z,86.1
2018-12-20T01:44:27.087Z,85.91
2018-12-20T01:45:27.091Z,86.1
2018-12-20T01:46:27.156Z,86
2018-12-20T01:47:27.627Z,86.1
2018-12-20T01:48:27.478Z,86.1
2018-12-20T01:49:27.321Z,85.91
2018-12-20T01:50:27.520Z,85.91
2018-12-20T01:51:27.258Z,85.91
2018-12-20T01:52:27.296Z,86.19
2018-12-20T01:53:27.526Z,85.91
2018-12-20T01:54:27.246Z,86
2018-12-20T01:55:27.581Z,86.67
2018-12-20T01:56:27.559Z,86.57
2018-12-20T01:57:27.336Z,86.1
2018-12-20T01:58:27.785Z,86.19
2018-12-20T01:59:27.619Z,86
2018-12-20T02:00:27.861Z,86.19
2018-12-20T02:01:27.553Z,86.67
2018-12-20T02:02:27.689Z,86.57
2018-12-20T02:03:27.461Z,86.29
2018-12-20T02:04:28.017Z,86.1
2018-12-20T02:05:27.511Z,86.1
2018-12-20T02:06:27.812Z,86.76
2018-12-20T02:07:27.556Z,86.57
2018-12-20T02:08:27.771Z,86.1
2018-12-20T02:09:27.970Z,86.1
2018-12-20T02:10:27.704Z,86.29
2018-12-20T02:11:27.688Z,86.67
2018-12-20T02:12:28.156Z,86.67
2018-12-20T02:13:27.949Z,86.57
2018-12-20T02:14:28.143Z,86.76
2018-12-20T02:15:27.620Z,86.67
2018-12-20T02:16:28.164Z,86.29
2018-12-20T02:17:28.214Z,86.67
2018-12-20T02:18:27.998Z,86.1
2018-12-20T02:19:28.040Z,86
2018-12-20T02:20:28.112Z,86.47
2018-12-20T02:21:27.878Z,86.47
2018-12-20T02:22:27.825Z,86.1
2018-12-20T02:23:28.252Z,86.29
2018-12-20T02:24:28.238Z,86.57
2018-12-20T02:25:28.288Z,86.1
2018-12-20T02:26:27.805Z,86.29
2018-12-20T02:27:28.223Z,86
2018-12-20T02:28:28.095Z,86.67
2018-12-20T02:29:28.165Z,86.76
2018-12-20T02:30:28.264Z,86.38
2018-12-20T02:31:28.057Z,86.47
2018-12-20T02:32:28.300Z,86.67
2018-12-20T02:33:28.359Z,86.67
2018-12-20T02:34:28.409Z,86.67
2018-12-20T02:35:28.051Z,86.67
2018-12-20T02:36:27.975Z,86.38
2018-12-20T02:37:28.277Z,86.67
2018-12-20T02:38:28.348Z,86.47
2018-12-20T02:39:28.300Z,86.67
2018-12-20T02:40:28.430Z,86.67
2018-12-20T02:41:28.263Z,86.67
2018-12-20T02:42:28.206Z,86.76
2018-12-20T02:43:28.139Z,86.76
2018-12-20T02:44:28.479Z,86.47
2018-12-20T02:45:28.449Z,86.67
2018-12-20T02:46:28.401Z,86.67
2018-12-20T02:47:28.729Z,86.47
2018-12-20T02:48:28.239Z,86.47
2018-12-20T02:49:28.469Z,86.38
2018-12-20T02:50:28.731Z,86.67
2018-12-20T02:51:28.248Z,86.38
2018-12-20T02:52:28.320Z,86.47
2018-12-20T02:53:28.604Z,86.47
2018-12-20T02:54:28.684Z,86.47
2018-12-20T02:55:28.522Z,86.67
2018-12-20T02:56:28.347Z,86.47
2018-12-20T02:57:28.352Z,86.47
2018-12-20T02:58:28.809Z,86.47
2018-12-20T02:59:28.730Z,86.47
2018-12-20T03:00:28.696Z,86.38
2018-12-20T03:01:28.668Z,86.67
2018-12-20T03:02:28.455Z,86.67
2018-12-20T03:03:28.707Z,86.38
2018-12-20T03:04:29.005Z,86.67
2018-12-20T03:05:28.935Z,86.38
2018-12-20T03:06:28.542Z,86.47
2018-12-20T03:07:28.613Z,86.38
2018-12-20T03:08:28.561Z,86.67
2018-12-20T03:09:28.809Z,86.47
2018-12-20T03:10:28.634Z,86.47
2018-12-20T03:11:28.658Z,86.47
2018-12-20T03:12:28.938Z,86.19
2018-12-20T03:13:29.747Z,86.29
2018-12-20T03:14:28.957Z,86.57
2018-12-20T03:15:28.739Z,86.38
2018-12-20T03:16:29.083Z,86.47
2018-12-20T03:17:28.967Z,86.76
2018-12-20T03:18:29.130Z,86.67
2018-12-20T03:19:28.726Z,86.47
2018-12-20T03:20:28.852Z,86.76
2018-12-20T03:21:29.012Z,86.67
2018-12-20T03:22:28.790Z,86.67
2018-12-20T03:23:29.205Z,86.67
2018-12-20T03:24:29.481Z,86.76
2018-12-20T03:25:29.367Z,86.67
2018-12-20T03:26:29.206Z,86.67
2018-12-20T03:27:29.111Z,86.57
2018-12-20T03:28:29.233Z,86.67
2018-12-20T03:29:29.209Z,86.67
2018-12-20T03:30:29.532Z,86.76
2018-12-20T03:31:29.778Z,86.67
2018-12-20T03:32:29.215Z,86.67
2018-12-20T03:33:29.063Z,86.67
2018-12-20T03:34:29.217Z,86.57
2018-12-20T03:35:29.076Z,86.76
2018-12-20T03:36:29.296Z,86.47
2018-12-20T03:37:29.199Z,86.76
2018-12-20T03:38:29.367Z,86.47
2018-12-20T03:39:29.337Z,86.76
2018-12-20T03:40:29.121Z,86.67
2018-12-20T03:41:29.156Z,86.47
2018-12-20T03:42:29.213Z,86.57
2018-12-20T03:43:29.144Z,86.29
2018-12-20T03:44:29.182Z,86.57
2018-12-20T03:45:31.674Z,86.47
2018-12-20T03:46:29.615Z,86.67
2018-12-20T03:47:29.541Z,86.19
2018-12-20T03:48:29.488Z,86.38
2018-12-20T03:49:29.504Z,86.47
2018-12-20T03:50:29.431Z,86.47
2018-12-20T03:51:29.333Z,86.1
2018-12-20T03:52:29.333Z,86.29
2018-12-20T03:53:29.427Z,86.38
2018-12-20T03:54:29.825Z,86.29
2018-12-20T03:55:29.572Z,86.38
2018-12-20T03:56:29.824Z,86.38
2018-12-20T03:57:29.897Z,86.19
2018-12-20T03:58:30.195Z,86.1
2018-12-20T03:59:29.684Z,86.38
2018-12-20T04:00:29.747Z,86.47
2018-12-20T04:01:29.454Z,86.43
2018-12-20T04:02:29.587Z,86.34
2018-12-20T04:03:29.663Z,86.43
2018-12-20T04:04:29.983Z,86.57
2018-12-20T04:05:29.835Z,87.05
2018-12-20T04:06:29.844Z,86.63
2018-12-20T04:07:29.749Z,86.15
2018-12-20T04:08:29.816Z,86.15
2018-12-20T04:09:30.020Z,86.72
2018-12-20T04:10:29.849Z,86.63
2018-12-20T04:11:30.035Z,86.72
2018-12-20T04:12:29.958Z,86.72
2018-12-20T04:13:29.943Z,86.72
2018-12-20T04:14:30.041Z,86.82
2018-12-20T04:15:37.700Z,86.72
2018-12-20T04:16:30.240Z,87.01
2018-12-20T04:17:30.352Z,86.63
2018-12-20T04:18:30.089Z,86.72
2018-12-20T04:19:29.888Z,86.63
2018-12-20T04:20:30.341Z,86.63
2018-12-20T04:21:30.227Z,86.72
2018-12-20T04:22:30.080Z,86.82
2018-12-20T04:23:29.835Z,86.72
2018-12-20T04:24:30.654Z,86.72
2018-12-20T04:25:30.305Z,86.63
2018-12-20T04:26:30.320Z,86.72
2018-12-20T04:27:30.458Z,86.72
2018-12-20T04:28:30.442Z,86.72
2018-12-20T04:29:30.453Z,86.82
2018-12-20T04:30:30.374Z,86.72
2018-12-20T04:31:30.297Z,86.72
2018-12-20T04:32:30.684Z,86.82
2018-12-20T04:33:30.351Z,86.91
2018-12-20T04:34:30.335Z,86.63
2018-12-20T04:35:30.224Z,86.72
2018-12-20T04:36:30.063Z,86.82
2018-12-20T04:37:30.336Z,86.72
2018-12-20T04:38:30.557Z,86.91
2018-12-20T04:39:30.421Z,86.72
2018-12-20T04:40:30.293Z,86.63
2018-12-20T04:41:30.184Z,86.72
2018-12-20T04:42:30.659Z,87.01
2018-12-20T04:43:30.200Z,86.34
2018-12-20T04:44:30.226Z,86.43
2018-12-20T04:45:30.215Z,86.43
2018-12-20T04:46:30.455Z,86.43
2018-12-20T04:47:30.457Z,85.96
2018-12-20T04:48:30.414Z,86.24
2018-12-20T04:49:30.304Z,86.24
2018-12-20T04:50:30.638Z,86.38
2018-12-20T04:51:30.614Z,86.34
2018-12-20T04:52:30.646Z,86.24
2018-12-20T04:53:30.769Z,86.47
2018-12-20T04:54:30.383Z,86.38
2018-12-20T04:55:30.951Z,85.96
2018-12-20T04:56:30.912Z,86.24
2018-12-20T04:57:30.680Z,86.15
2018-12-20T04:58:30.917Z,86.24
2018-12-20T04:59:30.611Z,86.29
2018-12-20T05:00:30.485Z,86.24
2018-12-20T05:01:30.933Z,86.38
2018-12-20T05:02:30.674Z,86.43
2018-12-20T05:03:30.897Z,86.38
2018-12-20T05:04:31.146Z,86.29
2018-12-20T05:05:31.053Z,86.29
2018-12-20T05:06:30.840Z,86.24
2018-12-20T05:07:30.850Z,86.19
2018-12-20T05:08:31.102Z,86.29
2018-12-20T05:09:30.635Z,86.53
2018-12-20T05:10:30.999Z,86.43
2018-12-20T05:11:31.001Z,86.53
2018-12-20T05:12:31.262Z,86.43
2018-12-20T05:13:31.181Z,86.38
2018-12-20T05:14:31.109Z,86.24
2018-12-20T05:15:31.220Z,86.29
2018-12-20T05:16:31.301Z,86.24
2018-12-20T05:17:31.291Z,86.43
2018-12-20T05:18:30.977Z,86.38
2018-12-20T05:19:31.210Z,86.24
2018-12-20T05:20:31.183Z,86.1
2018-12-20T05:21:31.160Z,86.47
2018-12-20T05:22:31.021Z,86.34
2018-12-20T05:23:31.383Z,86.43
2018-12-20T05:24:31.375Z,86.38
2018-12-20T05:25:31.518Z,86.29
2018-12-20T05:26:31.245Z,86.47
2018-12-20T05:27:31.411Z,86.38
2018-12-20T05:28:31.160Z,86.67
2018-12-20T05:29:31.549Z,86.67
2018-12-20T05:30:31.259Z,86.95
2018-12-20T05:31:31.302Z,87.05
2018-12-20T05:32:31.277Z,86.67
2018-12-20T05:33:31.642Z,86.67
2018-12-20T05:34:31.596Z,86.67
2018-12-20T05:35:31.362Z,86.19
2018-12-20T05:36:31.273Z,86.57
2018-12-20T05:37:31.317Z,86.57
2018-12-20T05:38:31.665Z,87.05
2018-12-20T05:39:31.303Z,86.67
2018-12-20T05:40:31.179Z,86.95
2018-12-20T05:41:31.520Z,86.47
2018-12-20T05:42:31.918Z,86.95
2018-12-20T05:43:31.374Z,86.47
2018-12-20T05:44:31.500Z,86.95
2018-12-20T05:45:31.678Z,86.47
2018-12-20T05:46:31.705Z,86.47
2018-12-20T05:47:31.513Z,86.29
2018-12-20T05:48:31.652Z,86.47
2018-12-20T05:49:31.599Z,86.19
2018-12-20T05:50:31.607Z,86.47
2018-12-20T05:51:31.800Z,86.19
2018-12-20T05:52:31.611Z,86.38
2018-12-20T05:53:32.971Z,86
2018-12-20T05:54:31.493Z,86.38
2018-12-20T05:55:31.435Z,86.29
2018-12-20T05:56:31.457Z,86.38
2018-12-20T05:57:32.040Z,86.1
2018-12-20T05:58:31.900Z,86.47
2018-12-20T05:59:31.532Z,86.1
2018-12-20T06:00:31.527Z,86.38
2018-12-20T06:01:31.729Z,86
2018-12-20T06:02:31.858Z,86.38
2018-12-20T06:03:32.037Z,86.29
2018-12-20T06:04:31.878Z,86.29
2018-12-20T06:05:32.037Z,86.29
2018-12-20T06:06:31.885Z,86
2018-12-20T06:07:31.850Z,86.29
2018-12-20T06:08:31.659Z,86
2018-12-20T06:09:32.042Z,86
2018-12-20T06:10:31.958Z,86.47
2018-12-20T06:11:31.723Z,86.29
2018-12-20T06:12:31.738Z,86.38
2018-12-20T06:13:31.972Z,86.29
2018-12-20T06:14:32.220Z,86.38
2018-12-20T06:15:31.806Z,86.86
2018-12-20T06:16:31.802Z,86.47
2018-12-20T06:17:32.213Z,86.86
2018-12-20T06:18:32.321Z,86.38
2018-12-20T06:19:32.140Z,86.38
2018-12-20T06:20:32.071Z,86
2018-12-20T06:21:32.149Z,86.95
2018-12-20T06:22:31.920Z,86.67
2018-12-20T06:23:32.184Z,87.05
2018-12-20T06:24:31.951Z,86.67
2018-12-20T06:25:32.217Z,86.67
2018-12-20T06:26:32.238Z,87.05
2018-12-20T06:27:31.994Z,86.38
2018-12-20T06:28:32.016Z,86.38
2018-12-20T06:29:32.032Z,86.95
2018-12-20T06:30:32.306Z,86.47
2018-12-20T06:31:32.326Z,86.29
2018-12-20T06:32:32.083Z,86.38
2018-12-20T06:33:32.111Z,86.1
2018-12-20T06:34:32.387Z,86.38
2018-12-20T06:35:32.406Z,86.1
2018-12-20T06:36:32.412Z,86.47
2018-12-20T06:37:32.172Z,86.38
2018-12-20T06:38:32.195Z,86.29
2018-12-20T06:39:32.204Z,86.1
2018-12-20T06:40:32.480Z,86.1
2018-12-20T06:41:32.245Z,86.29
2018-12-20T06:42:32.266Z,86.38
2018-12-20T06:43:32.281Z,86.38
2018-12-20T06:44:32.296Z,86.29
2018-12-20T06:45:32.573Z,86.19
2018-12-20T06:46:32.326Z,86.38
2018-12-20T06:47:32.353Z,86.29
2018-12-20T06:48:32.367Z,86.19
2018-12-20T06:49:32.379Z,86.47
2018-12-20T06:50:32.398Z,86.47
2018-12-20T06:51:32.681Z,86.38
2018-12-20T06:52:32.700Z,86.29
2018-12-20T06:53:32.454Z,86.29
2018-12-20T06:54:32.467Z,86.38
2018-12-20T06:55:32.496Z,86.38
2018-12-20T06:56:32.755Z,86.29
2018-12-20T06:57:32.534Z,86.29
2018-12-20T06:58:32.537Z,86.29
2018-12-20T06:59:32.825Z,86.47
2018-12-20T07:00:32.831Z,86.38
2018-12-20T07:01:32.638Z,86.29
2018-12-20T07:02:32.870Z,86.29
2018-12-20T07:03:32.630Z,86.38
2018-12-20T07:04:32.683Z,86.29
2018-12-20T07:05:32.916Z,86.19
2018-12-20T07:06:32.676Z,86.38
2018-12-20T07:07:32.701Z,86.57
2018-12-20T07:08:32.712Z,86.47
2018-12-20T07:09:32.985Z,86.47
2018-12-20T07:10:33.006Z,86.29
2018-12-20T07:11:33.026Z,86.19
2018-12-20T07:12:32.779Z,86.19
2018-12-20T07:13:33.058Z,86.57
2018-12-20T07:14:33.084Z,86.19
2018-12-20T07:15:32.841Z,86.38
2018-12-20T07:16:33.268Z,86.19
2018-12-20T07:17:32.868Z,86.47
2018-12-20T07:18:33.146Z,86.47
2018-12-20T07:19:32.914Z,86.57
2018-12-20T07:20:32.924Z,86.67
2018-12-20T07:21:32.939Z,86.38
2018-12-20T07:22:33.217Z,86.47
2018-12-20T07:23:32.989Z,86.47
2018-12-20T07:24:33.264Z,86.29
2018-12-20T07:25:33.269Z,86.38
2018-12-20T07:26:33.284Z,86.38
2018-12-20T07:27:33.046Z,86.38
2018-12-20T07:28:33.067Z,86.38
2018-12-20T07:29:33.086Z,86.29
2018-12-20T07:30:33.105Z,86
2018-12-20T07:31:33.118Z,86.38
2018-12-20T07:32:33.394Z,86
2018-12-20T07:33:33.409Z,86.38
2018-12-20T07:34:33.174Z,86.38
2018-12-20T07:35:33.195Z,86.38
2018-12-20T07:36:33.459Z,86.38
2018-12-20T07:37:33.479Z,86.29
2018-12-20T07:38:33.241Z,86.29
2018-12-20T07:39:33.267Z,86.38
2018-12-20T07:40:33.271Z,86.29
2018-12-20T07:41:33.561Z,86.1
2018-12-20T07:42:33.575Z,86.38
2018-12-20T07:43:33.581Z,86.1
2018-12-20T07:44:33.611Z,86.57
2018-12-20T07:45:33.359Z,86.1
2018-12-20T07:46:40.364Z,86.38
2018-12-20T07:47:33.655Z,86.29
2018-12-20T07:48:34.502Z,86.38
2018-12-20T07:49:33.428Z,87.05
2018-12-20T07:50:33.447Z,86.76
2018-12-20T07:51:33.464Z,86.76
2018-12-20T07:52:33.740Z,87.05
2018-12-20T07:53:33.510Z,86.57
2018-12-20T07:54:33.774Z,86.86
2018-12-20T07:55:33.535Z,86.76
2018-12-20T07:56:33.812Z,86.86
2018-12-20T07:57:33.828Z,86.95
2018-12-20T07:58:33.596Z,87.05
2018-12-20T07:59:33.865Z,86.67
2018-12-20T08:00:33.633Z,86.19
2018-12-20T08:01:33.637Z,87.14
2018-12-20T08:02:33.654Z,86.29
2018-12-20T08:03:33.940Z,87.05
2018-12-20T08:04:33.952Z,86.38
2018-12-20T08:05:34.055Z,86.95
2018-12-20T08:06:33.987Z,86.47
2018-12-20T08:07:33.742Z,86.38
2018-12-20T08:08:34.033Z,86.29
2018-12-20T08:09:34.050Z,86
2018-12-20T08:10:33.797Z,86.29
2018-12-20T08:11:34.074Z,86.47
2018-12-20T08:12:33.832Z,86.1
2018-12-20T08:13:33.853Z,86.47
2018-12-20T08:14:34.135Z,86.47
2018-12-20T08:15:34.140Z,86.1
2018-12-20T08:16:33.902Z,86.38
2018-12-20T08:17:33.921Z,86
2018-12-20T08:18:34.203Z,86
2018-12-20T08:19:38.746Z,86.29
2018-12-20T08:20:33.982Z,86.38
2018-12-20T08:21:33.986Z,86.19
2018-12-20T08:22:34.014Z,86
2018-12-20T08:23:34.283Z,86.38
2018-12-20T08:24:34.402Z,86.1
2018-12-20T08:25:34.057Z,86
2018-12-20T08:26:34.093Z,86.38
2018-12-20T08:27:34.092Z,86.47
2018-12-20T08:28:34.375Z,86.47
2018-12-20T08:29:34.402Z,86.43
2018-12-20T08:30:34.405Z,86.38
2018-12-20T08:31:34.162Z,86.38
2018-12-20T08:32:34.571Z,86.29
2018-12-20T08:33:34.456Z,86.38
2018-12-20T08:34:34.472Z,86.47
2018-12-20T08:35:34.236Z,86.29
2018-12-20T08:36:34.516Z,86.38
2018-12-20T08:37:34.269Z,86.29
2018-12-20T08:38:34.289Z,86.38
2018-12-20T08:39:34.579Z,86.38
2018-12-20T08:40:34.594Z,86.47
2018-12-20T08:41:34.356Z,86.38
2018-12-20T08:42:34.612Z,86.38
2018-12-20T08:43:34.382Z,86.47
2018-12-20T08:44:34.395Z,86.38
2018-12-20T08:45:34.671Z,86.38
2018-12-20T08:46:34.427Z,86.38
2018-12-20T08:47:34.709Z,86.38
2018-12-20T08:48:34.473Z,86.38
2018-12-20T08:49:34.754Z,86.29
2018-12-20T08:50:34.753Z,86.47
2018-12-20T08:51:34.515Z,86.33
2018-12-20T08:52:34.796Z,86
2018-12-20T08:53:34.820Z,86.52
2018-12-20T08:54:34.842Z,86.43
2018-12-20T08:55:34.597Z,86.38
2018-12-20T08:56:34.604Z,86.43
2018-12-20T08:57:34.628Z,86.38
2018-12-20T08:58:34.645Z,86.33
2018-12-20T08:59:34.659Z,86.43
2018-12-20T09:00:34.681Z,86.14
2018-12-20T09:01:34.951Z,86.33
2018-12-20T09:02:34.719Z,86.14
2018-12-20T09:03:34.738Z,86.43
2018-12-20T09:04:34.747Z,86.24
2018-12-20T09:05:35.036Z,86.33
2018-12-20T09:06:34.785Z,86.52
2018-12-20T09:07:35.071Z,86.71
2018-12-20T09:08:35.091Z,86.71
2018-12-20T09:09:35.097Z,86.52
2018-12-20T09:10:35.112Z,86.52
2018-12-20T09:11:34.879Z,86.52
2018-12-20T09:12:35.146Z,86.52
2018-12-20T09:13:35.167Z,86.61
2018-12-20T09:14:34.924Z,86.43
2018-12-20T09:15:35.208Z,86.52
2018-12-20T09:16:35.221Z,86.43
2018-12-20T09:17:34.980Z,86.52
2018-12-20T09:18:35.266Z,86.52
2018-12-20T09:19:35.012Z,86.52
2018-12-20T09:20:35.247Z,86.71
2018-12-20T09:21:35.053Z,86.61
2018-12-20T09:22:35.479Z,86.52
2018-12-20T09:23:35.345Z,86.71
2018-12-20T09:24:35.103Z,86.8
2018-12-20T09:25:35.375Z,86.71
2018-12-20T09:26:35.141Z,86.05
2018-12-20T09:27:35.414Z,86.14
2018-12-20T09:28:35.430Z,85.95
2018-12-20T09:29:35.190Z,86.24
2018-12-20T09:30:35.473Z,86.24
2018-12-20T09:31:35.231Z,86.24
2018-12-20T09:32:35.527Z,86.14
2018-12-20T09:33:35.517Z,85.95
2018-12-20T09:34:35.281Z,86.14
2018-12-20T09:35:35.565Z,86.43
2018-12-20T09:36:35.320Z,85.95
2018-12-20T09:37:35.597Z,85.95
2018-12-20T09:38:35.358Z,85.47
2018-12-20T09:39:35.366Z,85.47
2018-12-20T09:40:35.753Z,85.47
2018-12-20T09:41:35.661Z,85.95
2018-12-20T09:42:35.423Z,86.05
2018-12-20T09:43:35.701Z,85.57
2018-12-20T09:44:35.466Z,85.57
2018-12-20T09:45:35.734Z,85.47
2018-12-20T09:46:35.747Z,85.86
2018-12-20T09:47:35.770Z,85.86
2018-12-20T09:48:35.537Z,85.66
2018-12-20T09:49:35.804Z,85.66
2018-12-20T09:50:35.564Z,85.86
2018-12-20T09:51:35.837Z,85.47
2018-12-20T09:52:35.596Z,85.38
2018-12-20T09:53:35.622Z,85.47
2018-12-20T09:54:35.897Z,85.66
2018-12-20T09:55:36.011Z,85.57
2018-12-20T09:56:35.672Z,85.47
2018-12-20T09:57:35.957Z,85.66
2018-12-20T09:58:35.706Z,85.66
2018-12-20T09:59:35.729Z,85.1
2018-12-20T10:00:35.998Z,85.66
2018-12-20T10:01:35.761Z,85.1
2018-12-20T10:02:35.775Z,85.47
2018-12-20T10:03:35.795Z,85.57
2018-12-20T10:04:36.069Z,85.38
2018-12-20T10:05:35.838Z,84.72
2018-12-20T10:06:35.845Z,85.38
2018-12-20T10:07:36.129Z,85.19
2018-12-20T10:08:36.140Z,85.1
2018-12-20T10:09:35.907Z,85.66
2018-12-20T10:10:36.181Z,85.1
2018-12-20T10:11:35.960Z,85.38
2018-12-20T10:12:35.958Z,84.91
2018-12-20T10:13:35.974Z,85.42
2018-12-20T10:14:36.262Z,85.47
2018-12-20T10:15:37.200Z,85.42
2018-12-20T10:16:36.027Z,85.1
2018-12-20T10:17:36.059Z,85.61
2018-12-20T10:18:36.138Z,85.38
2018-12-20T10:19:36.081Z,85.04
2018-12-20T10:20:36.098Z,85.04
2018-12-20T10:21:36.127Z,84.95
2018-12-20T10:22:36.145Z,85.61
2018-12-20T10:23:36.154Z,84.85
2018-12-20T10:24:36.438Z,84.95
2018-12-20T10:25:36.187Z,85.61
2018-12-20T10:26:36.212Z,85.33
2018-12-20T10:27:36.233Z,85.42
2018-12-20T10:28:36.503Z,85.33
2018-12-20T10:29:36.261Z,85.14
2018-12-20T10:30:36.538Z,85.14
2018-12-20T10:31:36.563Z,84.85
2018-12-20T10:32:36.585Z,84.76
2018-12-20T10:33:36.332Z,85.14
2018-12-20T10:34:36.369Z,84.95
2018-12-20T10:35:36.630Z,84.95
2018-12-20T10:36:36.391Z,85.14
2018-12-20T10:37:36.407Z,84.76
2018-12-20T10:38:36.677Z,84.95
2018-12-20T10:39:36.716Z,84.85
2018-12-20T10:40:36.458Z,84.95
2018-12-20T10:41:36.738Z,84.95
2018-12-20T10:42:36.763Z,84.76
2018-12-20T10:43:36.519Z,84.76
2018-12-20T10:44:36.794Z,84.95
2018-12-20T10:45:36.550Z,84.66
2018-12-20T10:46:36.825Z,84.76
2018-12-20T10:47:36.852Z,84.95
2018-12-20T10:48:36.600Z,84.95
2018-12-20T10:49:36.627Z,84.95
2018-12-20T10:50:36.639Z,85.14
2018-12-20T10:51:36.706Z,84.95
2018-12-20T10:52:36.942Z,85.04
2018-12-20T10:53:36.960Z,85.14
2018-12-20T10:54:36.979Z,85.24
2018-12-20T10:55:37.001Z,84.76
2018-12-20T10:56:36.753Z,84.56
2018-12-20T10:57:36.768Z,85.14
2018-12-20T10:58:36.782Z,84.76
2018-12-20T10:59:36.798Z,84.56
2018-12-20T11:00:36.824Z,84.56
2018-12-20T11:01:36.833Z,84.95
2018-12-20T11:02:36.851Z,85.14
2018-12-20T11:03:36.880Z,84.76
2018-12-20T11:04:36.885Z,85.04
2018-12-20T11:05:36.906Z,84.95
2018-12-20T11:06:37.186Z,85.14
2018-12-20T11:07:37.300Z,85.04
2018-12-20T11:08:36.963Z,84.56
2018-12-20T11:09:37.239Z,84.76
2018-12-20T11:10:37.263Z,84.85
2018-12-20T11:11:37.012Z,84.76
2018-12-20T11:12:37.031Z,84.76
2018-12-20T11:13:37.055Z,84.66
2018-12-20T11:14:37.070Z,84.66
2018-12-20T11:15:37.410Z,84.95
2018-12-20T11:16:37.376Z,85.14
2018-12-20T11:17:40.140Z,85.04
2018-12-20T11:18:37.142Z,84.76
2018-12-20T11:19:37.414Z,84.76
2018-12-20T11:20:37.184Z,84.95
2018-12-20T11:21:37.194Z,85.14
2018-12-20T11:22:37.226Z,85.08
2018-12-20T11:23:37.489Z,84.95
2018-12-20T11:24:37.247Z,85.14
2018-12-20T11:25:37.262Z,84.61
2018-12-20T11:26:37.541Z,84.7
2018-12-20T11:27:37.569Z,84.66
2018-12-20T11:28:37.328Z,84.42
2018-12-20T11:29:37.346Z,84.38
2018-12-20T11:30:37.612Z,84.61
2018-12-20T11:31:37.379Z,84.8
2018-12-20T11:32:37.393Z,84.33
2018-12-20T11:33:37.670Z,84.33
2018-12-20T11:34:37.686Z,84.33
2018-12-20T11:35:37.701Z,84.42
2018-12-20T11:36:37.472Z,84.23
2018-12-20T11:37:37.488Z,84.7
2018-12-20T11:38:37.503Z,84.52
2018-12-20T11:39:37.523Z,84.7
2018-12-20T11:40:37.807Z,83.75
2018-12-20T11:41:37.558Z,83.94
2018-12-20T11:42:37.587Z,83.85
2018-12-20T11:43:37.848Z,84.42
2018-12-20T11:44:37.614Z,84.23
2018-12-20T11:45:37.624Z,84.66
2018-12-20T11:46:37.916Z,83.75
2018-12-20T11:47:45.642Z,83.94
2018-12-20T11:48:37.681Z,84.04
2018-12-20T11:49:37.957Z,83.62
2018-12-20T11:50:37.978Z,83.94
2018-12-20T11:51:38.001Z,83.9
2018-12-20T11:52:44.640Z,83.47
2018-12-20T11:53:37.889Z,83.47
2018-12-20T11:54:37.796Z,84.04
2018-12-20T11:55:37.812Z,83.94
2018-12-20T11:56:37.823Z,83.9
2018-12-20T11:57:37.851Z,83.85
2018-12-20T11:58:38.119Z,83.71
2018-12-20T11:59:38.138Z,83.94
2018-12-20T12:00:37.904Z,83.94
2018-12-20T12:01:37.915Z,83.94
2018-12-20T12:02:38.207Z,83.9
2018-12-20T12:03:38.576Z,83.65
2018-12-20T12:04:37.973Z,83.71
2018-12-20T12:05:37.995Z,83.9
2018-12-20T12:06:38.005Z,84
2018-12-20T12:07:38.289Z,83.62
2018-12-20T12:08:38.308Z,84.09
2018-12-20T12:09:38.062Z,83.9
2018-12-20T12:10:38.087Z,83.71
2018-12-20T12:11:38.107Z,84.56
2018-12-20T12:12:38.374Z,84.28
2018-12-20T12:13:38.143Z,84.38
2018-12-20T12:14:38.156Z,84.28
2018-12-20T12:15:38.442Z,84.66
2018-12-20T12:16:38.197Z,84.38
2018-12-20T12:17:38.206Z,84.47
2018-12-20T12:18:38.277Z,84.56
2018-12-20T12:19:38.497Z,84.38
2018-12-20T12:20:38.519Z,84.38
2018-12-20T12:21:38.278Z,84.28
2018-12-20T12:22:38.299Z,84.38
2018-12-20T12:23:38.319Z,84.19
2018-12-20T12:24:38.334Z,84.47
2018-12-20T12:25:38.355Z,84.66
2018-12-20T12:26:38.372Z,84.56
2018-12-20T12:27:38.389Z,84.47
2018-12-20T12:28:38.458Z,84.66
2018-12-20T12:29:38.443Z,84.38
2018-12-20T12:30:38.710Z,84.56
2018-12-20T12:31:38.459Z,84.38
2018-12-20T12:32:38.485Z,84.38
2018-12-20T12:33:38.496Z,84.66
2018-12-20T12:34:38.784Z,84.47
2018-12-20T12:35:38.533Z,84.7
2018-12-20T12:36:38.549Z,83.65
2018-12-20T12:37:38.582Z,83.9
2018-12-20T12:38:38.594Z,84.09
2018-12-20T12:39:38.612Z,83.9
2018-12-20T12:40:38.625Z,84.13
2018-12-20T12:41:38.899Z,84.04
2018-12-20T12:42:38.663Z,83.85
2018-12-20T12:43:38.945Z,84.13
2018-12-20T12:44:38.695Z,83.85
2018-12-20T12:45:38.823Z,83.75
2018-12-20T12:46:38.736Z,83.94
2018-12-20T12:47:38.754Z,84.13
2018-12-20T12:48:38.775Z,83.94
2018-12-20T12:49:39.046Z,83.85
2018-12-20T12:50:38.806Z,83.56
2018-12-20T12:51:39.084Z,83.56
2018-12-20T12:52:38.842Z,83.65
2018-12-20T12:53:38.864Z,83.56
2018-12-20T12:54:38.878Z,83.65
2018-12-20T12:55:38.897Z,83.56
2018-12-20T12:56:39.173Z,83.81